Terminal Aerodrome Forecast
Issued by NWS Wichita, KS

Home | Current Version | Previous Version | Graphics & Text | Print | Product List | Glossary On
Versions: 1 2 3 4 5 6 7 8 9 10 11 12 13 14 15 16 17 18 19 20 21 22 23 24 25
000
FTUS43 KICT 261724
TAFICT
TAF
KICT 261724Z 2618/2718 23011KT P6SM FEW100 SCT250
     FM262200 21010KT P6SM VCTS SCT040CB BKN100
     FM270000 18006KT P6SM VCTS SCT035 BKN090CB
     FM270800 VRB03KT 4SM BR SCT015
     FM271400 13006KT P6SM SCT020=

USA.gov is the U.S. government's official web portal to all federal, state and local government web resources and services.